createdAt,value
2022-11-20T00:03:57.303Z,16.57
2022-11-20T00:08:08.776Z,11.87
2022-11-20T00:12:20.222Z,17.07
2022-11-20T00:16:33.850Z,18.63
2022-11-20T00:20:45.293Z,19.97
2022-11-20T00:24:58.303Z,10.73
2022-11-20T00:29:11.323Z,11.70
2022-11-20T00:33:22.813Z,8.60
2022-11-20T00:37:34.287Z,9.50
2022-11-20T00:41:45.750Z,12.67
2022-11-20T00:46:02.252Z,13.53
2022-11-20T00:50:13.725Z,9.70
2022-11-20T00:54:25.274Z,14.73
2022-11-20T00:58:39.345Z,11.77
2022-11-20T01:02:50.760Z,11.83
2022-11-20T01:07:02.264Z,11.00
2022-11-20T01:11:22.751Z,9.43
2022-11-20T01:15:34.948Z,12.90
2022-11-20T01:19:51.653Z,10.80
2022-11-20T01:24:04.728Z,10.27
2022-11-20T01:28:16.187Z,9.90
2022-11-20T01:32:27.697Z,11.83
2022-11-20T01:36:40.346Z,9.53
2022-11-20T01:40:56.244Z,11.93
2022-11-20T01:45:45.807Z,8.63
2022-11-20T01:50:03.821Z,8.40
2022-11-20T01:54:24.132Z,10.43
2022-11-20T01:58:39.980Z,13.20
2022-11-20T02:02:58.550Z,9.93
2022-11-20T02:07:10.285Z,8.97
2022-11-20T02:11:22.700Z,9.27
2022-11-20T02:15:34.740Z,9.73
2022-11-20T02:19:46.258Z,11.53
2022-11-20T02:24:08.547Z,9.27
2022-11-20T02:28:20.387Z,10.77
2022-11-20T02:32:33.715Z,11.50
2022-11-20T02:36:47.613Z,8.70
2022-11-20T02:40:59.082Z,10.40
2022-11-20T02:45:11.180Z,7.93
2022-11-20T02:49:22.716Z,9.93
2022-11-20T02:53:34.345Z,7.87
2022-11-20T02:57:45.830Z,9.30
2022-11-20T03:01:57.378Z,7.13
2022-11-20T03:06:09.147Z,8.97
2022-11-20T03:10:20.593Z,10.10
2022-11-20T03:14:32.516Z,10.40
2022-11-20T03:18:44.706Z,8.77
2022-11-20T03:22:56.268Z,10.37
2022-11-20T03:27:07.995Z,11.27
2022-11-20T03:31:22.653Z,8.63
2022-11-20T03:35:34.327Z,10.03
2022-11-20T03:39:45.895Z,8.53
2022-11-20T03:44:00.254Z,8.93
2022-11-20T03:48:11.834Z,8.70
2022-11-20T03:52:23.448Z,9.77
2022-11-20T03:56:37.313Z,8.37
2022-11-20T04:00:48.941Z,9.70
2022-11-20T04:05:00.549Z,10.27
2022-11-20T04:09:12.264Z,10.97
2022-11-20T04:13:23.879Z,9.10
2022-11-20T04:17:35.604Z,13.53
2022-11-20T04:21:47.296Z,8.40
2022-11-20T04:26:06.906Z,7.47
2022-11-20T04:30:18.595Z,8.93
2022-11-20T04:34:30.189Z,9.13
2022-11-20T04:38:41.927Z,8.40
2022-11-20T04:42:53.518Z,11.20
2022-11-20T04:47:05.315Z,10.57
2022-11-20T04:51:16.939Z,9.33
2022-11-20T04:55:28.534Z,13.77
2022-11-20T04:59:40.112Z,8.87
2022-11-20T05:03:52.588Z,8.90
2022-11-20T05:08:04.549Z,10.13
2022-11-20T05:12:16.184Z,8.93
2022-11-20T05:16:27.777Z,14.10
2022-11-20T05:20:39.463Z,10.60
2022-11-20T05:24:51.091Z,12.33
2022-11-20T05:29:02.843Z,14.00
2022-11-20T05:33:14.752Z,10.50
2022-11-20T05:37:26.466Z,8.80
2022-11-20T05:41:38.058Z,14.63
2022-11-20T05:45:55.866Z,10.10
2022-11-20T05:50:07.732Z,12.57
2022-11-20T05:54:19.317Z,11.83
2022-11-20T05:58:32.768Z,11.37
2022-11-20T06:02:44.437Z,13.30
2022-11-20T06:06:56.018Z,11.63
2022-11-20T06:11:13.491Z,13.60
2022-11-20T06:15:25.413Z,12.20
2022-11-20T06:19:37.033Z,9.87
2022-11-20T06:23:49.757Z,10.50
2022-11-20T06:28:01.352Z,13.67
2022-11-20T06:32:12.967Z,14.27
2022-11-20T06:36:24.516Z,12.23
2022-11-20T06:40:36.054Z,13.87
2022-11-20T06:44:47.688Z,14.57
2022-11-20T06:48:59.389Z,15.23
2022-11-20T06:53:10.953Z,17.03
2022-11-20T06:57:22.584Z,14.93
2022-11-20T07:01:34.387Z,16.60
2022-11-20T07:05:46.929Z,15.80
2022-11-20T07:09:58.578Z,15.93
2022-11-20T07:14:10.150Z,16.17
2022-11-20T07:18:21.986Z,13.47
2022-11-20T07:22:33.541Z,15.97
2022-11-20T07:26:48.102Z,20.13
2022-11-20T07:31:00.027Z,15.93
2022-11-20T07:35:11.684Z,15.03
2022-11-20T07:39:23.590Z,19.37
2022-11-20T07:43:39.896Z,14.93
2022-11-20T07:47:53.068Z,14.70
2022-11-20T07:52:05.460Z,15.07
2022-11-20T07:56:17.176Z,12.87
2022-11-20T08:00:28.925Z,14.60
2022-11-20T08:04:40.589Z,12.47
2022-11-20T08:08:52.419Z,14.63
2022-11-20T08:13:22.835Z,15.10
2022-11-20T08:17:34.561Z,15.83
2022-11-20T08:21:46.697Z,15.00
2022-11-20T08:25:58.478Z,14.10
2022-11-20T08:30:10.827Z,17.20
2022-11-20T08:34:22.426Z,15.70
2022-11-20T08:38:34.000Z,17.70
2022-11-20T08:42:50.491Z,13.53
2022-11-20T08:47:02.161Z,15.73
2022-11-20T08:51:13.859Z,12.90
2022-11-20T08:55:25.476Z,13.30
2022-11-20T09:00:04.396Z,42.97
2022-11-20T09:04:08.726Z,14.00
2022-11-20T09:08:20.324Z,12.47
2022-11-20T09:12:31.855Z,13.20
2022-11-20T09:16:43.429Z,14.07
2022-11-20T09:21:02.582Z,19.50
2022-11-20T09:25:14.229Z,14.07
2022-11-20T09:29:25.886Z,14.77
2022-11-20T09:33:37.622Z,16.33
2022-11-20T09:37:49.330Z,15.47
2022-11-20T09:42:05.419Z,16.27
2022-11-20T09:46:30.896Z,14.23
2022-11-20T09:51:10.463Z,18.40
2022-11-20T09:55:22.656Z,16.53
2022-11-20T09:59:47.027Z,17.90
2022-11-20T10:04:14.804Z,15.43
2022-11-20T10:08:32.894Z,14.27
2022-11-20T10:13:11.945Z,16.47
2022-11-20T10:17:46.178Z,16.50
2022-11-20T10:22:10.024Z,16.43
2022-11-20T10:26:53.016Z,16.17
2022-11-20T10:31:11.729Z,15.27
2022-11-20T10:35:29.656Z,14.60
2022-11-20T10:40:22.735Z,19.87
2022-11-20T10:44:56.696Z,24.77
2022-11-20T10:49:26.779Z,23.73
2022-11-20T10:53:54.936Z,25.33
2022-11-20T10:58:18.077Z,19.37
2022-11-20T11:02:35.975Z,17.13
2022-11-20T11:06:49.654Z,17.33
2022-11-20T11:11:10.362Z,26.30
2022-11-20T11:15:31.513Z,17.23
2022-11-20T11:19:43.148Z,19.67
2022-11-20T11:24:26.847Z,17.67
2022-11-20T11:28:35.418Z,18.60
2022-11-20T11:32:47.433Z,15.53
2022-11-20T11:37:00.377Z,18.57
2022-11-20T11:41:22.038Z,15.70
2022-11-20T11:45:33.679Z,16.93
2022-11-20T11:49:45.402Z,18.77
2022-11-20T11:54:00.179Z,15.67
2022-11-20T11:58:42.875Z,18.20
2022-11-20T12:02:58.540Z,14.70
2022-11-20T12:07:47.633Z,15.00
2022-11-20T12:12:11.525Z,20.00
2022-11-20T12:16:23.912Z,18.13
2022-11-20T12:20:44.899Z,17.60
2022-11-20T12:25:04.511Z,24.03
2022-11-20T12:29:27.598Z,17.80
2022-11-20T12:34:10.153Z,18.97
2022-11-20T12:38:33.869Z,23.03
2022-11-20T12:43:30.031Z,22.63
2022-11-20T12:47:56.970Z,19.20
2022-11-20T12:52:31.188Z,17.70
2022-11-20T12:57:12.769Z,16.90
2022-11-20T13:01:53.777Z,17.13
2022-11-20T13:06:18.781Z,20.03
2022-11-20T13:10:44.473Z,21.30
2022-11-20T13:15:04.514Z,21.10
2022-11-20T13:19:18.248Z,18.60
2022-11-20T13:23:29.974Z,18.47
2022-11-20T13:27:49.023Z,19.80
2022-11-20T13:32:08.095Z,20.57
2022-11-20T13:36:29.272Z,18.97
2022-11-20T13:40:54.872Z,23.63
2022-11-20T13:45:12.601Z,21.67
2022-11-20T13:49:44.802Z,22.17
2022-11-20T13:53:59.673Z,25.63
2022-11-20T13:58:41.508Z,24.17
2022-11-20T14:03:17.651Z,24.70
2022-11-20T14:07:37.633Z,28.73
2022-11-20T14:11:49.405Z,22.03
2022-11-20T14:16:01.088Z,28.30
2022-11-20T14:20:16.319Z,23.07
2022-11-20T14:24:28.172Z,31.40
2022-11-20T14:28:41.120Z,25.80
2022-11-20T14:32:56.598Z,26.10
2022-11-20T14:37:16.789Z,28.30
2022-11-20T14:41:28.734Z,29.87
2022-11-20T14:45:40.466Z,25.33
2022-11-20T14:49:54.652Z,27.80
2022-11-20T14:54:17.284Z,27.90
2022-11-20T14:58:32.772Z,28.40
2022-11-20T15:02:50.044Z,33.57
2022-11-20T15:07:01.827Z,30.33
2022-11-20T15:11:24.607Z,27.60
2022-11-20T15:15:50.392Z,31.23
2022-11-20T15:20:03.086Z,30.57
2022-11-20T15:24:15.102Z,28.37
2022-11-20T15:28:56.222Z,27.17
2022-11-20T15:33:09.511Z,27.63
2022-11-20T15:37:22.249Z,29.60
2022-11-20T15:41:37.107Z,29.70
2022-11-20T15:46:01.458Z,33.77
2022-11-20T15:50:18.273Z,34.33
2022-11-20T15:54:29.899Z,33.13
2022-11-20T15:58:42.336Z,34.67
2022-11-20T16:02:53.936Z,33.07
2022-11-20T16:07:06.079Z,40.67
2022-11-20T16:11:18.739Z,30.43
2022-11-20T16:15:49.085Z,34.73
2022-11-20T16:20:00.675Z,39.17
2022-11-20T16:24:14.029Z,31.80
2022-11-20T16:28:25.827Z,32.97
2022-11-20T16:32:39.614Z,35.43
2022-11-20T16:36:51.409Z,32.33
2022-11-20T16:41:03.648Z,30.60
2022-11-20T16:45:19.982Z,38.83
2022-11-20T16:49:34.942Z,40.97
2022-11-20T16:53:46.541Z,36.13
2022-11-20T16:57:58.033Z,37.23
2022-11-20T17:02:10.526Z,38.50
2022-11-20T17:06:25.368Z,48.67
2022-11-20T17:10:36.898Z,41.40
2022-11-20T17:14:48.480Z,31.97
2022-11-20T17:19:03.403Z,36.25
2022-11-20T17:23:15.207Z,37.80
2022-11-20T17:27:26.956Z,32.00
2022-11-20T17:31:39.422Z,37.10
2022-11-20T17:35:50.962Z,35.07
2022-11-20T17:40:02.479Z,35.07
2022-11-20T17:44:14.179Z,31.60
2022-11-20T17:48:26.138Z,35.07
2022-11-20T17:52:37.573Z,32.57
2022-11-20T17:57:07.816Z,35.27
2022-11-20T18:01:19.789Z,34.00
2022-11-20T18:05:31.359Z,31.20
2022-11-20T18:09:42.789Z,37.90
2022-11-20T18:14:15.896Z,43.03
2022-11-20T18:18:27.350Z,33.53
2022-11-20T18:22:38.871Z,26.43
2022-11-20T18:26:50.489Z,28.60
2022-11-20T18:31:06.699Z,30.47
2022-11-20T18:35:18.175Z,28.40
2022-11-20T18:39:29.831Z,22.90
2022-11-20T18:43:59.930Z,25.57
2022-11-20T18:48:11.484Z,25.13
2022-11-20T18:52:33.851Z,26.47
2022-11-20T18:56:45.479Z,27.00
2022-11-20T19:00:57.047Z,24.70
2022-11-20T19:05:09.741Z,22.83
2022-11-20T19:09:22.900Z,23.27
2022-11-20T19:13:35.800Z,23.67
2022-11-20T19:17:47.393Z,24.57
2022-11-20T19:21:58.923Z,24.13
2022-11-20T19:26:10.620Z,25.67
2022-11-20T19:30:22.143Z,23.33
2022-11-20T19:34:33.653Z,25.23
2022-11-20T19:38:52.336Z,24.37
2022-11-20T19:43:05.182Z,26.03
2022-11-20T19:47:16.892Z,27.43
2022-11-20T19:51:31.092Z,23.77
2022-11-20T19:55:45.525Z,29.47
2022-11-20T19:59:57.105Z,31.70
2022-11-20T20:04:09.000Z,30.43
2022-11-20T20:08:20.523Z,24.97
2022-11-20T20:12:32.136Z,33.90
2022-11-20T20:16:48.301Z,33.97
2022-11-20T20:21:05.294Z,28.47
2022-11-20T20:25:16.854Z,28.87
2022-11-20T20:29:28.563Z,30.53
2022-11-20T20:33:41.312Z,28.40
2022-11-20T20:37:52.900Z,29.70
2022-11-20T20:42:04.541Z,32.13
2022-11-20T20:46:16.168Z,31.37
2022-11-20T20:50:27.737Z,31.10
2022-11-20T20:54:41.905Z,30.93
2022-11-20T20:58:53.644Z,31.53
2022-11-20T21:03:10.451Z,31.40
2022-11-20T21:07:22.212Z,32.07
2022-11-20T21:11:34.874Z,32.87
2022-11-20T21:15:48.988Z,36.20
2022-11-20T21:20:00.455Z,33.90
2022-11-20T21:24:11.945Z,32.30
2022-11-20T21:28:23.413Z,38.83
2022-11-20T21:32:34.905Z,40.97
2022-11-20T21:36:46.828Z,33.90
2022-11-20T21:40:58.790Z,39.07
2022-11-20T21:45:10.452Z,35.47
2022-11-20T21:49:22.407Z,33.93
2022-11-20T21:53:34.658Z,40.43
2022-11-20T21:57:46.108Z,38.50
2022-11-20T22:01:57.640Z,38.70
2022-11-20T22:06:10.200Z,35.90
2022-11-20T22:10:21.675Z,37.27
2022-11-20T22:14:33.145Z,37.07
2022-11-20T22:18:47.284Z,34.93
2022-11-20T22:22:58.782Z,36.70
2022-11-20T22:27:10.430Z,38.17
2022-11-20T22:31:24.247Z,34.10
2022-11-20T22:35:35.673Z,36.53
2022-11-20T22:39:47.104Z,34.03
2022-11-20T22:44:04.082Z,36.57
2022-11-20T22:48:15.587Z,37.13
2022-11-20T22:52:27.100Z,34.40
2022-11-20T22:56:39.128Z,32.50
2022-11-20T23:00:51.120Z,30.73
2022-11-20T23:05:02.641Z,38.13
2022-11-20T23:09:14.298Z,33.67
2022-11-20T23:13:26.072Z,36.53
2022-11-20T23:17:37.556Z,30.90
2022-11-20T23:21:49.132Z,30.40
2022-11-20T23:26:09.625Z,32.77
2022-11-20T23:30:21.483Z,31.80
2022-11-20T23:34:32.938Z,29.60
2022-11-20T23:38:44.471Z,32.70
2022-11-20T23:43:14.296Z,27.70
2022-11-20T23:47:25.817Z,27.10
2022-11-20T23:51:37.238Z,28.33
2022-11-20T23:55:54.209Z,27.67
